createdAt,value
2022-10-10T00:04:34.141Z,2.27
2022-10-10T00:09:35.649Z,2.50
2022-10-10T00:14:37.150Z,2.00
2022-10-10T00:19:38.611Z,2.70
2022-10-10T00:24:40.083Z,2.50
2022-10-10T00:29:41.549Z,2.57
2022-10-10T00:34:43.059Z,2.30
2022-10-10T00:39:44.605Z,2.00
2022-10-10T00:44:47.065Z,2.00
2022-10-10T00:49:48.585Z,2.07
2022-10-10T00:54:50.256Z,2.40
2022-10-10T00:59:53.476Z,2.27
2022-10-10T01:04:55.168Z,2.30
2022-10-10T01:10:00.160Z,2.30
2022-10-10T01:15:05.391Z,2.33
2022-10-10T01:20:40.900Z,2.30
2022-10-10T01:25:57.921Z,2.50
2022-10-10T01:30:59.765Z,2.47
2022-10-10T01:36:01.178Z,2.40
2022-10-10T01:41:24.757Z,2.40
2022-10-10T01:46:26.385Z,2.40
2022-10-10T01:52:01.706Z,2.17
2022-10-10T01:57:23.498Z,2.20
2022-10-10T02:02:40.310Z,2.00
2022-10-10T02:07:43.795Z,2.57
2022-10-10T02:12:46.235Z,2.53
2022-10-10T02:17:49.551Z,2.00
2022-10-10T02:22:52.052Z,2.57
2022-10-10T02:28:03.185Z,2.33
2022-10-10T02:33:06.065Z,2.47
2022-10-10T02:38:10.063Z,2.47
2022-10-10T02:43:12.584Z,2.40
2022-10-10T02:48:14.793Z,2.47
2022-10-10T02:53:16.348Z,2.37
2022-10-10T02:58:18.198Z,2.73
2022-10-10T03:03:20.306Z,3.03
2022-10-10T03:08:21.953Z,2.33
2022-10-10T03:13:23.934Z,2.13
2022-10-10T03:18:25.686Z,2.43
2022-10-10T03:23:27.289Z,2.60
2022-10-10T03:28:29.288Z,2.40
2022-10-10T03:33:31.640Z,2.43
2022-10-10T03:38:33.427Z,2.80
2022-10-10T03:43:35.162Z,2.70
2022-10-10T03:48:36.852Z,3.17
2022-10-10T03:53:38.669Z,2.50
2022-10-10T03:58:40.478Z,2.50
2022-10-10T04:03:42.298Z,2.60
2022-10-10T04:08:44.074Z,2.70
2022-10-10T04:13:45.821Z,2.83
2022-10-10T04:18:47.589Z,2.87
2022-10-10T04:23:49.302Z,2.63
2022-10-10T04:28:51.000Z,2.57
2022-10-10T04:33:52.851Z,2.43
2022-10-10T04:38:54.446Z,2.47
2022-10-10T04:43:56.109Z,2.50
2022-10-10T04:48:57.810Z,2.50
2022-10-10T04:53:59.316Z,2.93
2022-10-10T04:59:00.858Z,3.07
2022-10-10T05:04:02.429Z,3.47
2022-10-10T05:09:03.922Z,2.67
2022-10-10T05:14:05.446Z,3.03
2022-10-10T05:19:06.912Z,3.10
2022-10-10T05:24:08.467Z,3.00
2022-10-10T05:29:10.061Z,3.30
2022-10-10T05:34:15.048Z,2.90
2022-10-10T05:39:16.517Z,3.17
2022-10-10T05:44:18.525Z,3.20
2022-10-10T05:49:20.367Z,3.67
2022-10-10T05:54:22.446Z,2.97
2022-10-10T05:59:24.424Z,3.30
2022-10-10T06:04:26.078Z,3.40
2022-10-10T06:09:27.791Z,3.47
2022-10-10T06:14:29.659Z,3.93
2022-10-10T06:19:31.362Z,3.43
2022-10-10T06:24:33.109Z,2.93
2022-10-10T06:29:34.794Z,3.47
2022-10-10T06:34:36.473Z,3.20
2022-10-10T06:39:38.954Z,3.47
2022-10-10T06:44:40.566Z,3.30
2022-10-10T06:49:42.857Z,2.50
2022-10-10T06:54:44.415Z,2.60
2022-10-10T06:59:46.082Z,2.60
2022-10-10T07:04:47.920Z,2.83
2022-10-10T07:09:49.572Z,2.70
2022-10-10T07:14:51.227Z,2.53
2022-10-10T07:19:53.094Z,2.90
2022-10-10T07:24:54.967Z,2.70
2022-10-10T07:29:56.943Z,2.30
2022-10-10T07:34:59.123Z,2.53
2022-10-10T07:40:00.879Z,2.50
2022-10-10T07:45:02.622Z,2.40
2022-10-10T07:50:06.389Z,2.07
2022-10-10T07:55:09.388Z,2.20
2022-10-10T08:00:11.986Z,2.37
2022-10-10T08:05:14.069Z,2.00
2022-10-10T08:10:16.066Z,2.45
2022-10-10T08:15:18.164Z,2.10
2022-10-10T08:20:19.675Z,1.88
2022-10-10T08:25:21.196Z,1.83
2022-10-10T08:30:22.902Z,2.25
2022-10-10T08:35:24.505Z,2.25
2022-10-10T08:40:28.745Z,2.38
2022-10-10T08:45:30.661Z,2.10
2022-10-10T08:50:47.452Z,1.93
2022-10-10T08:55:49.054Z,2.10
2022-10-10T09:01:09.099Z,2.33
2022-10-10T09:06:19.427Z,2.23
2022-10-10T09:11:54.492Z,2.10
2022-10-10T09:17:02.067Z,2.00
2022-10-10T09:22:06.476Z,2.13
2022-10-10T09:27:13.171Z,2.00
2022-10-10T09:32:24.491Z,1.97
2022-10-10T09:37:46.978Z,2.07
2022-10-10T09:42:49.083Z,2.03
2022-10-10T09:47:53.936Z,2.03
2022-10-10T09:52:56.372Z,1.87
2022-10-10T09:58:02.848Z,2.20
2022-10-10T10:03:21.232Z,2.10
2022-10-10T10:08:34.272Z,1.90
2022-10-10T10:13:37.313Z,1.93
2022-10-10T10:18:46.428Z,1.90
2022-10-10T10:23:54.187Z,2.30
2022-10-10T10:28:57.810Z,2.00
2022-10-10T10:34:03.172Z,2.07
2022-10-10T10:39:21.269Z,1.70
2022-10-10T10:44:44.121Z,1.93
2022-10-10T10:50:21.768Z,1.90
2022-10-10T10:55:32.946Z,2.00
2022-10-10T11:01:23.114Z,2.17
2022-10-10T11:06:26.716Z,1.57
2022-10-10T11:11:36.981Z,2.47
2022-10-10T11:16:48.515Z,2.40
2022-10-10T11:22:00.825Z,1.73
2022-10-10T11:27:07.873Z,1.90
2022-10-10T11:32:16.220Z,1.77
2022-10-10T11:37:20.137Z,1.77
2022-10-10T11:42:21.753Z,1.77
2022-10-10T11:47:32.242Z,2.03
2022-10-10T11:52:39.865Z,1.80
2022-10-10T11:57:54.838Z,1.80
2022-10-10T12:02:57.414Z,1.90
2022-10-10T12:08:18.568Z,2.23
2022-10-10T12:13:20.039Z,1.90
2022-10-10T12:18:27.780Z,1.90
2022-10-10T12:23:31.480Z,1.83
2022-10-10T12:28:38.101Z,1.63
2022-10-10T12:33:41.968Z,2.40
2022-10-10T12:39:06.288Z,1.70
2022-10-10T12:44:25.993Z,1.93
2022-10-10T12:49:27.875Z,1.77
2022-10-10T12:54:33.521Z,1.77
2022-10-10T12:59:36.605Z,1.63
2022-10-10T13:04:42.357Z,2.00
2022-10-10T13:09:47.893Z,1.67
2022-10-10T13:14:49.385Z,1.70
2022-10-10T13:19:52.318Z,1.80
2022-10-10T13:24:54.467Z,1.90
2022-10-10T13:29:56.042Z,2.13
2022-10-10T13:35:01.419Z,2.00
2022-10-10T13:40:03.291Z,2.10
2022-10-10T13:45:30.262Z,2.27
2022-10-10T13:50:34.491Z,2.10
2022-10-10T13:55:38.096Z,1.60
2022-10-10T14:00:40.224Z,1.90
2022-10-10T14:05:43.664Z,1.80
2022-10-10T14:11:04.071Z,1.80
2022-10-10T14:16:17.985Z,1.60
2022-10-10T14:21:20.157Z,1.80
2022-10-10T14:26:22.172Z,2.10
2022-10-10T14:31:23.794Z,1.50
2022-10-10T14:36:25.570Z,2.10
2022-10-10T14:41:27.324Z,2.33
2022-10-10T14:46:29.200Z,1.63
2022-10-10T14:51:34.607Z,1.80
2022-10-10T14:57:07.411Z,1.70
2022-10-10T15:01:58.950Z,1.40
2022-10-10T15:07:16.467Z,1.93
2022-10-10T15:12:18.198Z,1.90
2022-10-10T15:17:19.851Z,1.90
2022-10-10T15:22:21.772Z,2.33
2022-10-10T15:27:24.341Z,1.80
2022-10-10T15:32:26.794Z,2.20
2022-10-10T15:37:28.914Z,2.10
2022-10-10T15:42:31.481Z,1.93
2022-10-10T15:47:33.378Z,2.10
2022-10-10T15:52:36.956Z,2.20
2022-10-10T15:57:38.570Z,2.03
2022-10-10T16:02:40.330Z,2.03
2022-10-10T16:07:47.918Z,2.00
2022-10-10T16:12:50.461Z,2.30
2022-10-10T16:17:52.178Z,2.30
2022-10-10T16:22:53.819Z,2.03
2022-10-10T16:27:55.436Z,1.97
2022-10-10T16:32:57.108Z,2.03
2022-10-10T16:38:00.387Z,2.17
2022-10-10T16:43:03.278Z,2.50
2022-10-10T16:48:04.841Z,2.77
2022-10-10T16:53:07.364Z,3.53
2022-10-10T16:58:09.388Z,3.40
2022-10-10T17:03:10.965Z,3.60
2022-10-10T17:08:12.656Z,2.90
2022-10-10T17:13:14.184Z,2.60
2022-10-10T17:18:17.388Z,2.50
2022-10-10T17:23:19.597Z,2.87
2022-10-10T17:28:21.404Z,2.37
2022-10-10T17:33:23.504Z,2.37
2022-10-10T17:38:39.142Z,2.40
2022-10-10T17:43:41.453Z,4.17
2022-10-10T17:48:43.336Z,3.60
2022-10-10T17:53:44.995Z,3.60
2022-10-10T17:58:47.184Z,3.30
2022-10-10T18:03:49.007Z,2.97
2022-10-10T18:08:52.109Z,2.83
2022-10-10T18:13:54.369Z,3.20
2022-10-10T18:18:56.314Z,3.77
2022-10-10T18:23:57.835Z,3.67
2022-10-10T18:28:59.539Z,3.50
2022-10-10T18:34:02.249Z,3.27
2022-10-10T18:39:08.049Z,3.50
2022-10-10T18:44:18.749Z,3.30
2022-10-10T18:49:21.164Z,4.13
2022-10-10T18:54:23.145Z,4.20
2022-10-10T18:59:25.117Z,4.43
2022-10-10T19:04:27.660Z,3.97
2022-10-10T19:09:29.429Z,4.00
2022-10-10T19:14:31.081Z,4.23
2022-10-10T19:19:32.768Z,4.30
2022-10-10T19:24:34.747Z,4.00
2022-10-10T19:29:36.301Z,4.97
2022-10-10T19:34:40.733Z,5.23
2022-10-10T19:39:42.447Z,6.00
2022-10-10T19:44:47.492Z,7.03
2022-10-10T19:49:49.233Z,8.03
2022-10-10T19:54:52.934Z,6.90
2022-10-10T19:59:54.699Z,7.23
2022-10-10T20:04:56.557Z,8.03
2022-10-10T20:09:58.225Z,6.80
2022-10-10T20:15:00.249Z,6.00
2022-10-10T20:20:02.398Z,3.63
2022-10-10T20:25:04.703Z,3.60
2022-10-10T20:30:07.081Z,3.10
2022-10-10T20:35:08.826Z,2.60
2022-10-10T20:40:10.659Z,2.43
2022-10-10T20:45:12.310Z,2.50
2022-10-10T20:50:14.332Z,1.77
2022-10-10T20:55:16.056Z,1.53
2022-10-10T21:00:17.695Z,1.80
2022-10-10T21:05:19.487Z,1.57
2022-10-10T21:10:21.011Z,2.00
2022-10-10T21:15:22.773Z,1.83
2022-10-10T21:20:24.379Z,1.67
2022-10-10T21:25:25.860Z,1.60
2022-10-10T21:30:29.607Z,1.63
2022-10-10T21:35:31.276Z,1.87
2022-10-10T21:40:35.838Z,1.50
2022-10-10T21:45:38.577Z,2.63
2022-10-10T21:50:40.302Z,1.80
2022-10-10T21:55:41.772Z,1.50
2022-10-10T22:00:43.535Z,2.07
2022-10-10T22:05:45.287Z,1.27
2022-10-10T22:10:46.820Z,1.67
2022-10-10T22:15:48.374Z,1.93
2022-10-10T22:20:50.237Z,1.73
2022-10-10T22:25:52.405Z,1.77
2022-10-10T22:30:54.083Z,1.80
2022-10-10T22:35:57.573Z,1.73
2022-10-10T22:40:59.331Z,1.83
2022-10-10T22:46:01.293Z,1.70
2022-10-10T22:51:04.828Z,2.30
2022-10-10T22:56:07.896Z,1.67
2022-10-10T23:01:12.206Z,2.00
2022-10-10T23:06:14.212Z,2.10
2022-10-10T23:11:15.974Z,1.60
2022-10-10T23:16:17.581Z,1.43
2022-10-10T23:21:19.339Z,1.63
2022-10-10T23:26:21.160Z,1.60
2022-10-10T23:31:22.820Z,2.27
2022-10-10T23:36:24.630Z,1.97
2022-10-10T23:41:26.398Z,2.10
2022-10-10T23:46:28.084Z,1.53
2022-10-10T23:51:29.853Z,1.70
2022-10-10T23:56:31.648Z,1.77
